Atlantic Lily — VREF6 — position and weather

sailwx.info

Track history (hours):
 
Tides and Currents Weather Stations Pressure Air Temp Water Temp Dewpoint Dewpoint Depression Visibility Wind Speed Wind Dir Waves Ship Positions

Atlantic Lily

Last reported at 2017-Sep-21 11:00 UTC. Time now 2017-Oct-17 04:21 UTC.
Position N 37°31' W 123°11'.
Warning: this ship's position is 25 days out of date.

Length 183 m; draft 11.3 m.

Type: Ship. MMSI: 477110700.

Date/timePositionNaut miles runAvg speedWind from/ knotsBaromVisibWave heightAir tempDewpointWater temp
2017-Sep-21 11:00N 37°31' W 123°11'612.0
2017-Sep-21 10:30N 37°34' W 123°04'612.3
2017-Sep-21 10:00N 37°37' W 122°58'612.2
2017-Sep-21 09:30N 37°41' W 122°52'711.6
2017-Sep-21 08:52N 37°44' W 122°43'3 8.3
2017-Sep-21 08:30N 37°46' W 122°40'510.9
2017-Sep-21 08:00N 37°47' W 122°34'510.4
2017-Sep-21 07:30N 37°50' W 122°28'3 6.7
2017-Sep-21 07:00N 37°49' W 122°24'4 7.6
2017-Sep-21 06:30N 37°46' W 122°21'2 3.9
2017-Sep-21 06:00N 37°44' W 122°21'0 0.1
2017-Sep-21 05:28N 37°44' W 122°21'0 0.0
2017-Sep-21 04:58N 37°44' W 122°21'0 0.1
2017-Sep-21 04:28N 37°44' W 122°21'0 0.0
2017-Sep-21 03:58N 37°44' W 122°21'0 0.0
2017-Sep-21 03:28N 37°44' W 122°21'0 0.1
2017-Sep-21 02:58N 37°44' W 122°21'0 0.3
2017-Sep-21 02:28N 37°44' W 122°21'0 0.1
2017-Sep-21 01:58N 37°44' W 122°21'0 0.0
2017-Sep-21 01:28N 37°44' W 122°21'0 0.0
2017-Sep-21 00:58N 37°44' W 122°21'0 0.0
2017-Sep-21 00:28N 37°44' W 122°21'0 0.2
2017-Sep-21 00:01N 37°44' W 122°21'3 5.7
2017-Sep-20 23:30N 37°47' W 122°22'4 8.1
2017-Sep-20 23:00N 37°51' W 122°25'510.3
2017-Sep-20 22:30N 37°56' W 122°27'510.6
2017-Sep-20 22:00N 38°01' W 122°24'4 8.3
2017-Sep-20 21:30N 38°03' W 122°20'4 7.8
2017-Sep-20 21:00N 38°04' W 122°15'4 7.9
2017-Sep-20 20:29N 38°03' W 122°10'4 6.1
2017-Sep-20 19:54N 38°03' W 122°06'  
2017-Sep-18 07:01N 38°03' W 122°05'0 0.0
2017-Sep-18 07:00N 38°03' W 122°05'2 2.4
2017-Sep-18 06:12N 38°02' W 122°08'2 7.7
2017-Sep-18 05:54N 38°03' W 122°10'512.1
2017-Sep-18 05:30N 38°04' W 122°16'611.5
2017-Sep-18 05:00N 38°01' W 122°23'713.8
2017-Sep-18 04:30N 37°55' W 122°27'713.5
2017-Sep-18 04:00N 37°49' W 122°23'4 6.6
2017-Sep-18 03:28N 37°46' W 122°21'0 0.0
2017-Sep-18 02:58N 37°46' W 122°21'0 0.0
2017-Sep-18 02:28N 37°46' W 122°21'0 0.1
2017-Sep-18 01:55N 37°46' W 122°21'0 0.0
2017-Sep-18 01:25N 37°46' W 122°21'0 0.0
2017-Sep-18 00:58N 37°46' W 122°21'0 0.1
2017-Sep-18 00:25N 37°46' W 122°21'0 0.2
2017-Sep-17 23:58N 37°46' W 122°21'0 0.1
2017-Sep-17 23:28N 37°46' W 122°21'0 0.1
2017-Sep-17 22:58N 37°46' W 122°21'0 0.0
2017-Sep-17 22:28N 37°46' W 122°21'0 0.0
2017-Sep-17 21:58N 37°46' W 122°21'0 0.0
2017-Sep-17 21:28N 37°46' W 122°21'0 0.0
2017-Sep-17 20:58N 37°46' W 122°21'0 0.0
2017-Sep-17 20:28N 37°46' W 122°21'0 0.0
2017-Sep-17 19:58N 37°46' W 122°21'0 0.2
2017-Sep-17 19:25N 37°46' W 122°21'0 0.3
2017-Sep-17 18:58N 37°46' W 122°21'0 0.0
2017-Sep-17 18:28N 37°46' W 122°21'0 0.0
2017-Sep-17 17:58N 37°46' W 122°21'0 0.1
2017-Sep-17 17:28N 37°46' W 122°21'0 0.0
2017-Sep-17 16:58N 37°46' W 122°21'0 0.0
2017-Sep-17 16:28N 37°46' W 122°21'0 0.0
2017-Sep-17 15:58N 37°46' W 122°21'0 0.0
2017-Sep-17 15:28N 37°46' W 122°21'0 0.0
2017-Sep-17 14:58N 37°46' W 122°21'0 0.0
2017-Sep-17 14:28N 37°46' W 122°21'0 0.0
2017-Sep-17 14:01N 37°46' W 122°21'1 2.0
2017-Sep-17 13:30N 37°47' W 122°22'612.0
2017-Sep-17 13:01N 37°49' W 122°29'713.6
2017-Sep-17 12:30N 37°46' W 122°37'510.1
2017-Sep-17 12:00N 37°43' W 122°42'611.1
2017-Sep-17 11:30N 37°40' W 122°48'611.6
2017-Sep-17 11:00N 37°37' W 122°54'611.5
2017-Sep-17 10:30N 37°34' W 122°60'510.5
2017-Sep-17 10:00N 37°30' W 123°05'510.0
2017-Sep-17 09:30N 37°27' W 123°09'612.3
2017-Sep-17 09:00N 37°23' W 123°15'713.5
2017-Sep-17 08:30N 37°18' W 123°21'713.3
2017-Sep-17 08:00N 37°13' W 123°27'612.8
2017-Sep-17 07:30N 37°08' W 123°32'612.7
2017-Sep-17 07:00N 37°04' W 123°38'612.8
2017-Sep-17 06:30N 36°59' W 123°43'712.9
2017-Sep-17 05:58N 36°54' W 123°49'1013.1
2017-Sep-17 05:13N 36°47' W 123°57'313.2
2017-Sep-17 04:59N 36°45' W 124°00'1213.2
2017-Sep-17 04:03N 36°36' W 124°11'112.6
2017-Sep-17 04:00N 36°35' W 124°11'1013.1
2017-Sep-17 03:12N 36°28' W 124°20'313.3
2017-Sep-17 03:00N 36°26' W 124°23'611.1
2017-Sep-17 02:30N 36°22' W 124°27'6710.9
2017-Sep-16 20:20N 35°33' W 125°24'47 5.5
2017-Sep-16 11:47N 34°49' W 125°45'1 0.9
2017-Sep-16 11:15N 34°50' W 125°45'0 0.9
2017-Sep-16 10:58N 34°50' W 125°46'0 1.0
2017-Sep-16 10:29N 34°50' W 125°46'1 0.8
2017-Sep-16 09:49N 34°50' W 125°46'0 0.8
2017-Sep-16 09:26N 34°51' W 125°47'0 0.7
2017-Sep-16 08:51N 34°51' W 125°47'0 0.7
2017-Sep-16 08:30N 34°51' W 125°47'0 0.8
2017-Sep-16 08:00N 34°51' W 125°48'12 3.3
2017-Sep-16 04:29N 34°40' W 125°47'211 8.2
2017-Sep-15 02:46N 31°13' W 124°55'312.6
2017-Sep-15 02:30N 31°10' W 124°54'1612.8
2017-Sep-15 01:13N 30°54' W 124°51'312.6
2017-Sep-15 01:00N 30°51' W 124°50'  
Track history (hours):
 
Tides and Currents Weather Stations Pressure Air Temp Water Temp Dewpoint Dewpoint Depression Visibility Wind Speed Wind Dir Waves Ship Positions

Atlantic Lily

Last reported at 2017-Sep-21 11:00 UTC. Time now 2017-Oct-17 04:21 UTC.
Position N 37°31' W 123°11'.
Warning: this ship's position is 25 days out of date.

Length 183 m; draft 11.3 m.

Type: Ship. MMSI: 477110700.

Date/timePositionNaut miles runAvg speedWind from/ knotsBaromVisibWave heightAir tempDewpointWater temp
2017-Sep-21 11:00N 37°31' W 123°11'612.0
2017-Sep-21 10:30N 37°34' W 123°04'612.3
2017-Sep-21 10:00N 37°37' W 122°58'612.2
2017-Sep-21 09:30N 37°41' W 122°52'711.6
2017-Sep-21 08:52N 37°44' W 122°43'3 8.3
2017-Sep-21 08:30N 37°46' W 122°40'510.9
2017-Sep-21 08:00N 37°47' W 122°34'510.4
2017-Sep-21 07:30N 37°50' W 122°28'3 6.7
2017-Sep-21 07:00N 37°49' W 122°24'4 7.6
2017-Sep-21 06:30N 37°46' W 122°21'2 3.9
2017-Sep-21 06:00N 37°44' W 122°21'0 0.1
2017-Sep-21 05:28N 37°44' W 122°21'0 0.0
2017-Sep-21 04:58N 37°44' W 122°21'0 0.1
2017-Sep-21 04:28N 37°44' W 122°21'0 0.0
2017-Sep-21 03:58N 37°44' W 122°21'0 0.0
2017-Sep-21 03:28N 37°44' W 122°21'0 0.1
2017-Sep-21 02:58N 37°44' W 122°21'0 0.3
2017-Sep-21 02:28N 37°44' W 122°21'0 0.1
2017-Sep-21 01:58N 37°44' W 122°21'0 0.0
2017-Sep-21 01:28N 37°44' W 122°21'0 0.0
2017-Sep-21 00:58N 37°44' W 122°21'0 0.0
2017-Sep-21 00:28N 37°44' W 122°21'0 0.2
2017-Sep-21 00:01N 37°44' W 122°21'3 5.7
2017-Sep-20 23:30N 37°47' W 122°22'4 8.1
2017-Sep-20 23:00N 37°51' W 122°25'510.3
2017-Sep-20 22:30N 37°56' W 122°27'510.6
2017-Sep-20 22:00N 38°01' W 122°24'4 8.3
2017-Sep-20 21:30N 38°03' W 122°20'4 7.8
2017-Sep-20 21:00N 38°04' W 122°15'4 7.9
2017-Sep-20 20:29N 38°03' W 122°10'4 6.1
2017-Sep-20 19:54N 38°03' W 122°06'  
2017-Sep-18 07:01N 38°03' W 122°05'0 0.0
2017-Sep-18 07:00N 38°03' W 122°05'2 2.4
2017-Sep-18 06:12N 38°02' W 122°08'2 7.7
2017-Sep-18 05:54N 38°03' W 122°10'512.1
2017-Sep-18 05:30N 38°04' W 122°16'611.5
2017-Sep-18 05:00N 38°01' W 122°23'713.8
2017-Sep-18 04:30N 37°55' W 122°27'713.5
2017-Sep-18 04:00N 37°49' W 122°23'4 6.6
2017-Sep-18 03:28N 37°46' W 122°21'0 0.0
2017-Sep-18 02:58N 37°46' W 122°21'0 0.0
2017-Sep-18 02:28N 37°46' W 122°21'0 0.1
2017-Sep-18 01:55N 37°46' W 122°21'0 0.0
2017-Sep-18 01:25N 37°46' W 122°21'0 0.0
2017-Sep-18 00:58N 37°46' W 122°21'0 0.1
2017-Sep-18 00:25N 37°46' W 122°21'0 0.2
2017-Sep-17 23:58N 37°46' W 122°21'0 0.1
2017-Sep-17 23:28N 37°46' W 122°21'0 0.1
2017-Sep-17 22:58N 37°46' W 122°21'0 0.0
2017-Sep-17 22:28N 37°46' W 122°21'0 0.0
2017-Sep-17 21:58N 37°46' W 122°21'0 0.0
2017-Sep-17 21:28N 37°46' W 122°21'0 0.0
2017-Sep-17 20:58N 37°46' W 122°21'0 0.0
2017-Sep-17 20:28N 37°46' W 122°21'0 0.0
2017-Sep-17 19:58N 37°46' W 122°21'0 0.2
2017-Sep-17 19:25N 37°46' W 122°21'0 0.3
2017-Sep-17 18:58N 37°46' W 122°21'0 0.0
2017-Sep-17 18:28N 37°46' W 122°21'0 0.0
2017-Sep-17 17:58N 37°46' W 122°21'0 0.1
2017-Sep-17 17:28N 37°46' W 122°21'0 0.0
2017-Sep-17 16:58N 37°46' W 122°21'0 0.0
2017-Sep-17 16:28N 37°46' W 122°21'0 0.0
2017-Sep-17 15:58N 37°46' W 122°21'0 0.0
2017-Sep-17 15:28N 37°46' W 122°21'0 0.0
2017-Sep-17 14:58N 37°46' W 122°21'0 0.0
2017-Sep-17 14:28N 37°46' W 122°21'0 0.0
2017-Sep-17 14:01N 37°46' W 122°21'1 2.0
2017-Sep-17 13:30N 37°47' W 122°22'612.0
2017-Sep-17 13:01N 37°49' W 122°29'713.6
2017-Sep-17 12:30N 37°46' W 122°37'510.1
2017-Sep-17 12:00N 37°43' W 122°42'611.1
2017-Sep-17 11:30N 37°40' W 122°48'611.6
2017-Sep-17 11:00N 37°37' W 122°54'611.5
2017-Sep-17 10:30N 37°34' W 122°60'510.5
2017-Sep-17 10:00N 37°30' W 123°05'510.0
2017-Sep-17 09:30N 37°27' W 123°09'612.3
2017-Sep-17 09:00N 37°23' W 123°15'713.5
2017-Sep-17 08:30N 37°18' W 123°21'713.3
2017-Sep-17 08:00N 37°13' W 123°27'612.8
2017-Sep-17 07:30N 37°08' W 123°32'612.7
2017-Sep-17 07:00N 37°04' W 123°38'612.8
2017-Sep-17 06:30N 36°59' W 123°43'712.9
2017-Sep-17 05:58N 36°54' W 123°49'1013.1
2017-Sep-17 05:13N 36°47' W 123°57'313.2
2017-Sep-17 04:59N 36°45' W 124°00'1213.2
2017-Sep-17 04:03N 36°36' W 124°11'112.6
2017-Sep-17 04:00N 36°35' W 124°11'1013.1
2017-Sep-17 03:12N 36°28' W 124°20'313.3
2017-Sep-17 03:00N 36°26' W 124°23'611.1
2017-Sep-17 02:30N 36°22' W 124°27'6710.9
2017-Sep-16 20:20N 35°33' W 125°24'47 5.5
2017-Sep-16 11:47N 34°49' W 125°45'1 0.9
2017-Sep-16 11:15N 34°50' W 125°45'0 0.9
2017-Sep-16 10:58N 34°50' W 125°46'0 1.0
2017-Sep-16 10:29N 34°50' W 125°46'1 0.8
2017-Sep-16 09:49N 34°50' W 125°46'0 0.8
2017-Sep-16 09:26N 34°51' W 125°47'0 0.7
2017-Sep-16 08:51N 34°51' W 125°47'0 0.7
2017-Sep-16 08:30N 34°51' W 125°47'0 0.8
2017-Sep-16 08:00N 34°51' W 125°48'12 3.3
2017-Sep-16 04:29N 34°40' W 125°47'211 8.2
2017-Sep-15 02:46N 31°13' W 124°55'312.6
2017-Sep-15 02:30N 31°10' W 124°54'1612.8
2017-Sep-15 01:13N 30°54' W 124°51'312.6
2017-Sep-15 01:00N 30°51' W 124°50'  

Dump ship's entire track history